createdAt,value
2022-12-01T00:01:14.851Z,4.58
2022-12-01T00:03:41.925Z,4.46
2022-12-01T00:06:15.901Z,4.45
2022-12-01T00:09:02.971Z,4.50
2022-12-01T00:11:29.919Z,4.25
2022-12-01T00:13:56.662Z,4.22
2022-12-01T00:16:23.612Z,4.34
2022-12-01T00:18:52.523Z,4.31
2022-12-01T00:21:22.012Z,4.15
2022-12-01T00:23:51.172Z,4.20
2022-12-01T00:26:19.172Z,4.18
2022-12-01T00:28:54.264Z,4.15
2022-12-01T00:31:21.679Z,4.06
2022-12-01T00:33:49.735Z,4.04
2022-12-01T00:36:16.481Z,4.02
2022-12-01T00:38:43.279Z,4.22
2022-12-01T00:41:10.095Z,4.26
2022-12-01T00:43:36.865Z,4.22
2022-12-01T00:46:04.107Z,4.11
2022-12-01T00:48:30.982Z,4.13
2022-12-01T00:50:57.872Z,4.09
2022-12-01T00:53:24.899Z,4.10
2022-12-01T00:55:54.131Z,4.01
2022-12-01T00:58:21.632Z,3.87
2022-12-01T01:00:48.647Z,3.80
2022-12-01T01:03:15.704Z,3.70
2022-12-01T01:05:43.072Z,3.75
2022-12-01T01:08:12.241Z,3.71
2022-12-01T01:10:43.134Z,3.66
2022-12-01T01:13:10.231Z,3.66
2022-12-01T01:15:37.891Z,3.76
2022-12-01T01:18:05.511Z,3.77
2022-12-01T01:20:33.001Z,3.86
2022-12-01T01:22:59.867Z,3.89
2022-12-01T01:25:26.827Z,3.95
2022-12-01T01:27:53.611Z,3.98
2022-12-01T01:30:20.814Z,3.97
2022-12-01T01:32:47.626Z,3.96
2022-12-01T01:35:14.454Z,3.87
2022-12-01T01:37:41.238Z,3.96
2022-12-01T01:40:08.510Z,4.17
2022-12-01T01:42:35.416Z,4.23
2022-12-01T01:45:02.226Z,4.00
2022-12-01T01:47:36.893Z,3.92
2022-12-01T01:50:13.463Z,3.88
2022-12-01T01:52:48.774Z,3.99
2022-12-01T01:55:16.442Z,4.12
2022-12-01T01:57:45.056Z,4.18
2022-12-01T02:00:18.993Z,4.03
2022-12-01T02:02:47.573Z,3.89
2022-12-01T02:05:22.744Z,3.82
2022-12-01T02:07:51.975Z,3.84
2022-12-01T02:10:22.682Z,3.80
2022-12-01T02:13:08.393Z,3.74
2022-12-01T02:16:03.761Z,3.51
2022-12-01T02:18:42.576Z,3.36
2022-12-01T02:21:28.514Z,3.18
2022-12-01T02:24:13.277Z,3.11
2022-12-01T02:26:46.019Z,3.05
2022-12-01T02:29:43.547Z,3.03
2022-12-01T02:32:18.819Z,3.16
2022-12-01T02:34:48.627Z,3.26
2022-12-01T02:37:32.799Z,3.27
2022-12-01T02:40:20.549Z,3.28
2022-12-01T02:42:59.863Z,3.33
2022-12-01T02:45:37.261Z,3.27
2022-12-01T02:48:10.005Z,3.27
2022-12-01T02:50:39.906Z,3.38
2022-12-01T02:53:10.378Z,3.54
2022-12-01T02:55:37.166Z,3.56
2022-12-01T02:58:14.086Z,3.47
2022-12-01T03:00:52.114Z,3.36
2022-12-01T03:03:33.021Z,3.39
2022-12-01T03:06:14.539Z,3.52
2022-12-01T03:08:51.521Z,3.45
2022-12-01T03:11:28.942Z,3.40
2022-12-01T03:14:18.608Z,3.34
2022-12-01T03:16:50.963Z,3.43
2022-12-01T03:19:32.857Z,3.44
2022-12-01T03:22:12.574Z,3.54
2022-12-01T03:24:43.683Z,3.47
2022-12-01T03:27:14.123Z,3.54
2022-12-01T03:29:45.393Z,3.59
2022-12-01T03:32:12.880Z,3.70
2022-12-01T03:34:59.463Z,3.39
2022-12-01T03:37:37.962Z,3.27
2022-12-01T03:40:12.042Z,3.15
2022-12-01T03:42:48.071Z,3.22
2022-12-01T03:45:24.475Z,3.38
2022-12-01T03:47:51.802Z,3.47
2022-12-01T03:50:19.056Z,3.44
2022-12-01T03:53:26.612Z,3.09
2022-12-01T03:56:01.654Z,2.94
2022-12-01T03:58:36.500Z,2.88
2022-12-01T04:01:05.094Z,2.94
2022-12-01T04:03:31.952Z,2.88
2022-12-01T04:05:59.335Z,3.06
2022-12-01T04:08:26.391Z,3.08
2022-12-01T04:10:53.184Z,3.20
2022-12-01T04:13:23.353Z,3.21
2022-12-01T04:15:51.433Z,3.04
2022-12-01T04:18:19.225Z,2.94
2022-12-01T04:20:47.251Z,3.02
2022-12-01T04:23:34.013Z,3.10
2022-12-01T04:26:02.989Z,3.10
2022-12-01T04:28:29.938Z,3.20
2022-12-01T04:30:56.736Z,3.12
2022-12-01T04:33:23.448Z,3.07
2022-12-01T04:35:58.062Z,3.07
2022-12-01T04:38:30.044Z,2.97
2022-12-01T04:40:57.593Z,3.14
2022-12-01T04:43:24.358Z,3.28
2022-12-01T04:45:51.092Z,3.26
2022-12-01T04:48:17.805Z,3.16
2022-12-01T04:50:44.541Z,3.16
2022-12-01T04:53:11.337Z,3.18
2022-12-01T04:55:39.210Z,3.31
2022-12-01T04:58:06.319Z,3.15
2022-12-01T05:00:33.805Z,3.10
2022-12-01T05:03:00.991Z,3.02
2022-12-01T05:05:27.755Z,3.10
2022-12-01T05:07:54.680Z,3.20
2022-12-01T05:10:22.385Z,3.09
2022-12-01T05:12:49.662Z,3.03
2022-12-01T05:15:17.473Z,3.00
2022-12-01T05:17:44.652Z,3.11
2022-12-01T05:20:37.738Z,3.23
2022-12-01T05:23:06.076Z,3.08
2022-12-01T05:25:33.539Z,2.97
2022-12-01T05:28:00.449Z,2.91
2022-12-01T05:30:28.949Z,2.96
2022-12-01T05:32:56.004Z,3.11
2022-12-01T05:35:22.868Z,2.95
2022-12-01T05:37:49.885Z,2.90
2022-12-01T05:40:16.628Z,2.75
2022-12-01T05:42:43.647Z,2.76
2022-12-01T05:45:10.689Z,2.84
2022-12-01T05:47:37.473Z,3.02
2022-12-01T05:50:05.997Z,3.17
2022-12-01T05:52:36.156Z,2.95
2022-12-01T05:55:04.226Z,2.91
2022-12-01T05:57:32.673Z,2.91
2022-12-01T06:00:00.152Z,2.97
2022-12-01T06:02:27.059Z,3.03
2022-12-01T06:04:53.982Z,3.12
2022-12-01T06:07:22.455Z,3.31
2022-12-01T06:09:49.972Z,3.14
2022-12-01T06:12:17.293Z,3.08
2022-12-01T06:14:44.400Z,3.14
2022-12-01T06:17:11.791Z,3.14
2022-12-01T06:19:39.316Z,3.07
2022-12-01T06:22:06.158Z,3.12
2022-12-01T06:24:32.999Z,2.87
2022-12-01T06:26:59.745Z,2.72
2022-12-01T06:29:26.680Z,2.65
2022-12-01T06:31:53.449Z,2.62
2022-12-01T06:34:20.306Z,2.77
2022-12-01T06:36:47.020Z,2.64
2022-12-01T06:39:16.023Z,2.62
2022-12-01T06:41:43.094Z,2.65
2022-12-01T06:44:10.612Z,2.66
2022-12-01T06:46:37.934Z,2.79
2022-12-01T06:49:04.819Z,2.70
2022-12-01T06:51:33.913Z,2.71
2022-12-01T06:54:05.280Z,2.66
2022-12-01T06:56:32.504Z,2.71
2022-12-01T06:58:59.567Z,2.77
2022-12-01T07:01:26.803Z,2.82
2022-12-01T07:03:53.659Z,2.81
2022-12-01T07:06:20.770Z,2.91
2022-12-01T07:08:47.631Z,2.94
2022-12-01T07:11:15.757Z,3.04
2022-12-01T07:13:46.647Z,3.12
2022-12-01T07:16:13.467Z,3.25
2022-12-01T07:18:40.648Z,3.34
2022-12-01T07:21:12.519Z,3.38
2022-12-01T07:23:40.017Z,3.42
2022-12-01T07:26:10.434Z,3.48
2022-12-01T07:28:37.234Z,3.57
2022-12-01T07:31:09.388Z,3.71
2022-12-01T07:33:36.736Z,3.83
2022-12-01T07:36:04.993Z,3.92
2022-12-01T07:38:32.995Z,4.00
2022-12-01T07:41:04.660Z,4.01
2022-12-01T07:43:32.724Z,4.08
2022-12-01T07:46:22.297Z,4.18
2022-12-01T07:48:50.222Z,4.26
2022-12-01T07:51:17.719Z,4.38
2022-12-01T07:53:46.420Z,4.48
2022-12-01T07:56:13.738Z,4.52
2022-12-01T07:58:41.400Z,4.55
2022-12-01T08:01:18.908Z,4.66
2022-12-01T08:03:47.567Z,4.85
2022-12-01T08:06:14.250Z,5.00
2022-12-01T08:08:41.919Z,5.13
2022-12-01T08:11:17.024Z,5.21
2022-12-01T08:13:44.054Z,5.21
2022-12-01T08:16:14.202Z,5.23
2022-12-01T08:18:42.066Z,5.30
2022-12-01T08:21:14.351Z,5.35
2022-12-01T08:23:42.254Z,5.52
2022-12-01T08:26:15.226Z,5.71
2022-12-01T08:28:42.850Z,5.85
2022-12-01T08:31:22.609Z,5.93
2022-12-01T08:33:50.717Z,5.94
2022-12-01T08:36:20.227Z,6.01
2022-12-01T08:38:49.120Z,6.08
2022-12-01T08:41:16.231Z,6.13
2022-12-01T08:44:01.051Z,6.18
2022-12-01T08:46:31.597Z,6.34
2022-12-01T08:48:58.583Z,6.56
2022-12-01T08:51:26.345Z,6.76
2022-12-01T08:53:55.761Z,6.85
2022-12-01T08:56:28.414Z,6.93
2022-12-01T08:58:55.983Z,7.06
2022-12-01T09:01:23.535Z,7.11
2022-12-01T09:04:05.453Z,7.13
2022-12-01T09:06:39.623Z,7.09
2022-12-01T09:09:08.010Z,7.33
2022-12-01T09:11:34.744Z,7.46
2022-12-01T09:14:01.648Z,7.51
2022-12-01T09:16:28.520Z,7.51
2022-12-01T09:18:55.798Z,7.46
2022-12-01T09:21:33.002Z,7.42
2022-12-01T09:24:01.443Z,7.40
2022-12-01T09:26:28.632Z,7.44
2022-12-01T09:29:01.785Z,7.43
2022-12-01T09:31:28.799Z,7.47
2022-12-01T09:33:57.807Z,7.56
2022-12-01T09:36:25.513Z,7.73
2022-12-01T09:38:52.538Z,7.84
2022-12-01T09:41:21.114Z,7.87
2022-12-01T09:44:15.195Z,7.89
2022-12-01T09:46:52.632Z,8.18
2022-12-01T09:49:22.999Z,8.34
2022-12-01T09:51:54.449Z,8.55
2022-12-01T09:54:21.474Z,8.70
2022-12-01T09:56:53.346Z,8.79
2022-12-01T09:59:26.638Z,8.86
2022-12-01T10:02:01.181Z,8.85
2022-12-01T10:04:27.989Z,8.76
2022-12-01T10:07:13.145Z,8.62
2022-12-01T10:09:49.199Z,8.80
2022-12-01T10:12:18.945Z,8.91
2022-12-01T10:14:48.347Z,8.94
2022-12-01T10:17:20.927Z,9.08
2022-12-01T10:20:35.159Z,9.31
2022-12-01T10:23:10.523Z,9.42
2022-12-01T10:25:55.444Z,9.48
2022-12-01T10:28:27.905Z,9.58
2022-12-01T10:31:04.267Z,9.67
2022-12-01T10:33:39.499Z,9.60
2022-12-01T10:36:07.289Z,9.53
2022-12-01T10:38:36.598Z,9.46
2022-12-01T10:41:06.908Z,9.60
2022-12-01T10:43:44.690Z,9.50
2022-12-01T10:46:25.801Z,9.37
2022-12-01T10:48:58.538Z,9.33
2022-12-01T10:51:26.915Z,9.36
2022-12-01T10:54:07.670Z,9.58
2022-12-01T10:56:35.416Z,9.77
2022-12-01T10:59:15.804Z,9.88
2022-12-01T11:01:48.274Z,9.97
2022-12-01T11:04:45.690Z,9.94
2022-12-01T11:07:24.691Z,10.08
2022-12-01T11:10:04.319Z,10.09
2022-12-01T11:12:32.059Z,10.23
2022-12-01T11:14:59.268Z,10.25
2022-12-01T11:17:43.329Z,10.15
2022-12-01T11:20:30.323Z,10.24
2022-12-01T11:23:18.716Z,10.30
2022-12-01T11:25:59.245Z,10.18
2022-12-01T11:28:26.232Z,10.15
2022-12-01T11:31:02.712Z,10.00
2022-12-01T11:33:32.657Z,9.90
2022-12-01T11:35:59.580Z,9.91
2022-12-01T11:38:34.739Z,10.10
2022-12-01T11:41:01.673Z,10.24
2022-12-01T11:43:37.717Z,10.14
2022-12-01T11:46:09.813Z,10.04
2022-12-01T11:48:36.952Z,10.18
2022-12-01T11:51:29.938Z,10.48
2022-12-01T11:54:18.165Z,10.40
2022-12-01T11:56:46.699Z,10.27
2022-12-01T11:59:15.371Z,10.29
2022-12-01T12:02:18.521Z,10.49
2022-12-01T12:05:18.196Z,10.64
2022-12-01T12:08:05.020Z,10.88
2022-12-01T12:10:59.591Z,10.96
2022-12-01T12:13:35.239Z,11.03
2022-12-01T12:16:26.329Z,11.11
2022-12-01T12:19:52.489Z,10.98
2022-12-01T12:22:38.369Z,11.04
2022-12-01T12:25:16.963Z,11.01
2022-12-01T12:28:09.317Z,11.00
2022-12-01T12:31:14.779Z,10.91
2022-12-01T12:34:14.141Z,10.94
2022-12-01T12:36:52.061Z,10.90
2022-12-01T12:39:22.321Z,11.03
2022-12-01T12:41:54.259Z,10.96
2022-12-01T12:44:37.545Z,11.03
2022-12-01T12:47:04.672Z,11.12
2022-12-01T12:49:40.434Z,11.23
2022-12-01T12:52:18.125Z,11.25
2022-12-01T12:55:01.925Z,11.31
2022-12-01T12:57:44.593Z,11.36
2022-12-01T13:00:21.460Z,11.47
2022-12-01T13:03:10.781Z,11.50
2022-12-01T13:06:10.280Z,11.61
2022-12-01T13:08:57.444Z,11.58
2022-12-01T13:11:32.622Z,11.59
2022-12-01T13:14:07.793Z,11.52
2022-12-01T13:16:39.891Z,11.51
2022-12-01T13:19:22.754Z,11.48
2022-12-01T13:21:52.218Z,11.55
2022-12-01T13:24:23.547Z,11.41
2022-12-01T13:26:55.981Z,11.36
2022-12-01T13:29:25.043Z,11.29
2022-12-01T13:31:54.454Z,11.32
2022-12-01T13:34:42.122Z,11.30
2022-12-01T13:37:12.091Z,11.36
2022-12-01T13:39:41.568Z,11.42
2022-12-01T13:42:23.801Z,11.43
2022-12-01T13:45:02.204Z,11.54
2022-12-01T13:47:38.031Z,11.48
2022-12-01T13:50:53.075Z,11.45
2022-12-01T13:53:19.871Z,11.50
2022-12-01T13:55:58.035Z,11.43
2022-12-01T13:58:41.624Z,11.43
2022-12-01T14:01:21.254Z,11.39
2022-12-01T14:03:56.929Z,11.35
2022-12-01T14:06:38.458Z,11.25
2022-12-01T14:09:14.283Z,11.12
2022-12-01T14:11:54.403Z,11.06
2022-12-01T14:14:26.193Z,11.08
2022-12-01T14:16:58.483Z,11.01
2022-12-01T14:19:52.138Z,10.95
2022-12-01T14:22:33.135Z,10.96
2022-12-01T14:25:00.324Z,10.87
2022-12-01T14:27:45.338Z,10.79
2022-12-01T14:30:42.432Z,10.68
2022-12-01T14:33:40.105Z,10.61
2022-12-01T14:36:26.423Z,10.56
2022-12-01T14:39:00.120Z,10.51
2022-12-01T14:41:39.445Z,10.48
2022-12-01T14:44:11.553Z,10.49
2022-12-01T14:46:52.623Z,10.47
2022-12-01T14:49:28.263Z,10.42
2022-12-01T14:52:00.724Z,10.38
2022-12-01T14:54:35.029Z,10.30
2022-12-01T14:57:07.414Z,10.30
2022-12-01T14:59:35.220Z,10.28
2022-12-01T15:02:09.614Z,10.29
2022-12-01T15:05:06.382Z,10.25
2022-12-01T15:07:42.528Z,10.17
2022-12-01T15:10:36.196Z,10.11
2022-12-01T15:13:24.821Z,10.06
2022-12-01T15:15:54.940Z,10.01
2022-12-01T15:18:42.504Z,9.97
2022-12-01T15:21:17.015Z,9.93
2022-12-01T15:24:01.972Z,9.90
2022-12-01T15:26:49.882Z,9.85
2022-12-01T15:29:31.886Z,9.78
2022-12-01T15:32:21.043Z,9.74
2022-12-01T15:34:51.882Z,9.67
2022-12-01T15:37:24.772Z,9.62
2022-12-01T15:40:00.298Z,9.56
2022-12-01T15:42:39.631Z,9.51
2022-12-01T15:45:12.458Z,9.45
2022-12-01T15:47:43.533Z,9.38
2022-12-01T15:50:29.843Z,9.31
2022-12-01T15:52:58.240Z,9.28
2022-12-01T15:55:36.296Z,9.22
2022-12-01T15:58:08.074Z,9.22
2022-12-01T16:00:35.883Z,9.16
2022-12-01T16:03:03.337Z,9.18
2022-12-01T16:05:34.930Z,9.12
2022-12-01T16:08:20.147Z,9.11
2022-12-01T16:11:11.852Z,9.08
2022-12-01T16:13:50.003Z,9.03
2022-12-01T16:16:23.025Z,9.01
2022-12-01T16:19:05.992Z,9.00
2022-12-01T16:21:42.535Z,8.95
2022-12-01T16:24:15.927Z,8.90
2022-12-01T16:27:02.733Z,8.78
2022-12-01T16:29:33.948Z,8.68
2022-12-01T16:32:20.384Z,8.57
2022-12-01T16:34:48.990Z,8.36
2022-12-01T16:37:16.477Z,8.17
2022-12-01T16:39:43.386Z,8.05
2022-12-01T16:42:13.046Z,7.97
2022-12-01T16:44:40.300Z,7.91
2022-12-01T16:47:16.002Z,7.92
2022-12-01T16:49:42.885Z,7.95
2022-12-01T16:54:57.157Z,7.85
2022-12-01T16:57:24.034Z,7.81
2022-12-01T16:59:51.019Z,7.82
2022-12-01T17:02:18.292Z,7.85
2022-12-01T17:04:45.113Z,7.91
2022-12-01T17:07:11.912Z,7.92
2022-12-01T17:09:38.701Z,7.92
2022-12-01T17:12:05.932Z,7.90
2022-12-01T17:14:32.834Z,7.87
2022-12-01T17:16:59.558Z,7.84
2022-12-01T17:19:26.462Z,7.80
2022-12-01T17:21:53.323Z,7.63
2022-12-01T17:24:20.141Z,7.61
2022-12-01T17:26:46.830Z,7.42
2022-12-01T17:29:13.674Z,7.24
2022-12-01T17:31:40.474Z,7.12
2022-12-01T17:34:07.374Z,7.07
2022-12-01T17:36:34.604Z,7.18
2022-12-01T17:39:01.473Z,7.10
2022-12-01T17:41:32.548Z,7.03
2022-12-01T17:44:02.648Z,6.88
2022-12-01T17:46:30.263Z,6.83
2022-12-01T17:48:57.482Z,6.85
2022-12-01T17:51:24.395Z,6.84
2022-12-01T17:53:52.704Z,6.90
2022-12-01T17:56:19.447Z,6.98
2022-12-01T17:58:46.293Z,7.09
2022-12-01T18:01:19.176Z,6.98
2022-12-01T18:03:47.821Z,6.76
2022-12-01T18:06:15.669Z,6.67
2022-12-01T18:08:43.262Z,6.61
2022-12-01T18:11:14.115Z,6.60
2022-12-01T18:13:43.959Z,6.60
2022-12-01T18:16:22.529Z,6.64
2022-12-01T18:18:50.047Z,6.67
2022-12-01T18:21:19.463Z,6.55
2022-12-01T18:23:54.793Z,6.49
2022-12-01T18:26:22.957Z,6.47
2022-12-01T18:28:55.302Z,6.49
2022-12-01T18:31:22.421Z,6.49
2022-12-01T18:33:49.287Z,6.53
2022-12-01T18:36:19.012Z,6.45
2022-12-01T18:38:49.177Z,6.27
2022-12-01T18:41:19.258Z,6.19
2022-12-01T18:43:47.314Z,5.98
2022-12-01T18:46:15.892Z,5.91
2022-12-01T18:48:51.168Z,6.02
2022-12-01T18:51:19.191Z,6.10
2022-12-01T18:53:45.988Z,6.25
2022-12-01T18:56:15.212Z,6.37
2022-12-01T18:58:42.929Z,6.41
2022-12-01T19:01:22.156Z,6.47
2022-12-01T19:03:49.258Z,6.37
2022-12-01T19:06:16.973Z,6.26
2022-12-01T19:08:46.750Z,6.18
2022-12-01T19:11:13.862Z,6.12
2022-12-01T19:13:41.949Z,6.08
2022-12-01T19:16:14.193Z,6.06
2022-12-01T19:18:41.541Z,5.94
2022-12-01T19:21:10.464Z,5.88
2022-12-01T19:23:37.682Z,5.91
2022-12-01T19:26:10.839Z,6.03
2022-12-01T19:28:38.681Z,6.09
2022-12-01T19:31:11.236Z,6.03
2022-12-01T19:33:38.675Z,6.00
2022-12-01T19:36:14.759Z,5.89
2022-12-01T19:38:44.606Z,5.72
2022-12-01T19:41:13.413Z,5.63
2022-12-01T19:43:42.350Z,5.59
2022-12-01T19:46:11.996Z,5.58
2022-12-01T19:48:38.973Z,5.53
2022-12-01T19:51:06.555Z,5.61
2022-12-01T19:53:34.208Z,5.57
2022-12-01T19:56:03.120Z,5.49
2022-12-01T19:58:33.203Z,5.35
2022-12-01T20:01:09.071Z,5.39
2022-12-01T20:03:38.037Z,5.36
2022-12-01T20:06:07.704Z,5.27
2022-12-01T20:08:36.137Z,5.22
2022-12-01T20:11:04.409Z,5.18
2022-12-01T20:13:33.130Z,5.20
2022-12-01T20:16:14.668Z,5.35
2022-12-01T20:18:42.215Z,5.42
2022-12-01T20:21:20.578Z,5.49
2022-12-01T20:24:10.254Z,5.48
2022-12-01T20:26:40.526Z,5.57
2022-12-01T20:29:11.903Z,5.64
2022-12-01T20:31:39.943Z,5.63
2022-12-01T20:34:16.931Z,5.63
2022-12-01T20:36:44.898Z,5.61
2022-12-01T20:39:12.859Z,5.44
2022-12-01T20:41:44.014Z,5.35
2022-12-01T20:44:12.999Z,5.15
2022-12-01T20:46:41.723Z,5.14
2022-12-01T20:49:09.737Z,5.08
2022-12-01T20:51:36.579Z,5.03
2022-12-01T20:54:27.341Z,5.16
2022-12-01T20:56:53.246Z,5.10
2022-12-01T20:59:20.578Z,5.19
2022-12-01T21:01:48.396Z,5.17
2022-12-01T21:04:15.408Z,4.97
2022-12-01T21:06:42.404Z,4.90
2022-12-01T21:09:09.753Z,4.88
2022-12-01T21:12:05.614Z,4.81
2022-12-01T21:14:37.569Z,4.94
2022-12-01T21:17:19.056Z,4.85
2022-12-01T21:19:57.273Z,4.88
2022-12-01T21:22:25.651Z,4.89
2022-12-01T21:25:02.763Z,4.81
2022-12-01T21:27:29.942Z,4.55
2022-12-01T21:29:57.062Z,4.51
2022-12-01T21:32:33.377Z,4.65
2022-12-01T21:35:14.841Z,4.65
2022-12-01T21:37:41.668Z,4.73
2022-12-01T21:40:29.026Z,4.86
2022-12-01T21:42:58.792Z,4.84
2022-12-01T21:45:32.151Z,4.73
2022-12-01T21:48:16.047Z,4.55
2022-12-01T21:50:42.973Z,4.48
2022-12-01T21:53:20.457Z,4.53
2022-12-01T21:55:47.821Z,4.63
2022-12-01T21:58:29.864Z,4.65
2022-12-01T22:00:59.069Z,4.53
2022-12-01T22:03:31.079Z,4.64
2022-12-01T22:09:01.011Z,4.49
2022-12-01T22:11:29.112Z,4.48
2022-12-01T22:14:16.772Z,4.39
2022-12-01T22:16:51.683Z,4.27
2022-12-01T22:19:26.748Z,4.32
2022-12-01T22:22:02.392Z,4.34
2022-12-01T22:24:44.356Z,4.30
2022-12-01T22:27:32.854Z,4.34
2022-12-01T22:30:18.519Z,4.36
2022-12-01T22:32:51.276Z,4.28
2022-12-01T22:35:21.247Z,4.31
2022-12-01T22:38:00.038Z,4.37
2022-12-01T22:40:51.438Z,4.55
2022-12-01T22:43:18.219Z,4.58
2022-12-01T22:45:49.119Z,4.57
2022-12-01T22:48:21.882Z,4.44
2022-12-01T22:50:51.719Z,4.37
2022-12-01T22:53:29.225Z,4.35
2022-12-01T22:56:00.084Z,4.35
2022-12-01T22:58:41.221Z,4.43
2022-12-01T23:01:19.707Z,4.48
2022-12-01T23:03:46.579Z,4.45
2022-12-01T23:06:49.255Z,4.44
2022-12-01T23:09:16.180Z,4.48
2022-12-01T23:11:44.232Z,4.35
2022-12-01T23:14:18.839Z,4.28
2022-12-01T23:16:45.621Z,4.27
2022-12-01T23:19:12.354Z,4.22
2022-12-01T23:21:39.339Z,4.15
2022-12-01T23:24:06.833Z,4.07
2022-12-01T23:26:33.778Z,4.03
2022-12-01T23:29:01.461Z,4.12
2022-12-01T23:31:29.303Z,4.04
2022-12-01T23:33:56.078Z,4.03
2022-12-01T23:36:28.654Z,4.12
2022-12-01T23:39:02.612Z,4.01
2022-12-01T23:41:48.738Z,3.96
2022-12-01T23:44:24.592Z,4.00
2022-12-01T23:46:53.848Z,4.01
2022-12-01T23:49:24.200Z,3.92
2022-12-01T23:51:53.867Z,3.84
2022-12-01T23:54:41.052Z,3.83
2022-12-01T23:57:21.449Z,3.84
2022-12-01T23:59:54.541Z,4.02
